sensor_id;sensor_type;location;lat;lon;timestamp;P1;durP1;ratioP1;P2;durP2;ratioP2
16391;SDS011;8305;-33.882;151.134;2023-03-23T00:02:25;9.35;;;5.05;;
16391;SDS011;8305;-33.882;151.134;2023-03-23T00:04:58;12.02;;;5.43;;
16391;SDS011;8305;-33.882;151.134;2023-03-23T00:07:29;8.65;;;4.93;;
16391;SDS011;8305;-33.882;151.134;2023-03-23T00:10:01;10.05;;;5.60;;
16391;SDS011;8305;-33.882;151.134;2023-03-23T00:12:34;11.00;;;5.00;;
16391;SDS011;8305;-33.882;151.134;2023-03-23T00:15:11;8.40;;;4.30;;
16391;SDS011;8305;-33.882;151.134;2023-03-23T00:17:42;9.70;;;4.60;;
16391;SDS011;8305;-33.882;151.134;2023-03-23T00:20:15;11.40;;;6.18;;
16391;SDS011;8305;-33.882;151.134;2023-03-23T00:22:50;10.10;;;4.93;;
16391;SDS011;8305;-33.882;151.134;2023-03-23T00:25:26;16.83;;;5.40;;
16391;SDS011;8305;-33.882;151.134;2023-03-23T00:27:57;15.88;;;6.50;;
16391;SDS011;8305;-33.882;151.134;2023-03-23T00:30:31;9.52;;;4.68;;
16391;SDS011;8305;-33.882;151.134;2023-03-23T00:33:03;8.27;;;4.20;;
16391;SDS011;8305;-33.882;151.134;2023-03-23T00:35:34;10.95;;;4.22;;
16391;SDS011;8305;-33.882;151.134;2023-03-23T00:38:05;6.82;;;3.60;;
16391;SDS011;8305;-33.882;151.134;2023-03-23T00:40:38;6.15;;;3.50;;
16391;SDS011;8305;-33.882;151.134;2023-03-23T00:43:09;9.15;;;4.05;;
16391;SDS011;8305;-33.882;151.134;2023-03-23T00:45:44;8.25;;;3.40;;
16391;SDS011;8305;-33.882;151.134;2023-03-23T00:48:19;6.10;;;3.08;;
16391;SDS011;8305;-33.882;151.134;2023-03-23T00:50:50;5.35;;;3.05;;
16391;SDS011;8305;-33.882;151.134;2023-03-23T00:53:21;7.72;;;3.35;;
16391;SDS011;8305;-33.882;151.134;2023-03-23T00:55:53;6.85;;;3.30;;
16391;SDS011;8305;-33.882;151.134;2023-03-23T00:58:24;5.03;;;3.13;;
16391;SDS011;8305;-33.882;151.134;2023-03-23T01:00:57;5.53;;;3.30;;
16391;SDS011;8305;-33.882;151.134;2023-03-23T01:03:28;10.88;;;3.90;;
16391;SDS011;8305;-33.882;151.134;2023-03-23T01:06:03;7.00;;;3.70;;
16391;SDS011;8305;-33.882;151.134;2023-03-23T01:08:39;5.05;;;3.35;;
16391;SDS011;8305;-33.882;151.134;2023-03-23T01:11:13;8.90;;;3.00;;
16391;SDS011;8305;-33.882;151.134;2023-03-23T01:13:45;7.13;;;3.45;;
16391;SDS011;8305;-33.882;151.134;2023-03-23T01:16:18;4.88;;;3.05;;
16391;SDS011;8305;-33.882;151.134;2023-03-23T01:18:50;9.55;;;4.00;;
16391;SDS011;8305;-33.882;151.134;2023-03-23T01:21:21;6.65;;;3.30;;
16391;SDS011;8305;-33.882;151.134;2023-03-23T01:23:53;4.55;;;2.75;;
16391;SDS011;8305;-33.882;151.134;2023-03-23T01:26:25;5.25;;;2.75;;
16391;SDS011;8305;-33.882;151.134;2023-03-23T01:28:57;5.95;;;3.15;;
16391;SDS011;8305;-33.882;151.134;2023-03-23T01:31:32;11.82;;;7.45;;
16391;SDS011;8305;-33.882;151.134;2023-03-23T01:34:04;5.93;;;3.53;;
16391;SDS011;8305;-33.882;151.134;2023-03-23T01:36:36;5.22;;;3.38;;
16391;SDS011;8305;-33.882;151.134;2023-03-23T01:39:07;6.05;;;3.55;;
16391;SDS011;8305;-33.882;151.134;2023-03-23T01:41:38;6.43;;;3.78;;
16391;SDS011;8305;-33.882;151.134;2023-03-23T01:47:13;6.07;;;3.97;;
16391;SDS011;8305;-33.882;151.134;2023-03-23T01:49:46;6.47;;;3.40;;
16391;SDS011;8305;-33.882;151.134;2023-03-23T01:52:19;9.30;;;3.67;;
16391;SDS011;8305;-33.882;151.134;2023-03-23T01:54:55;6.45;;;3.10;;
16391;SDS011;8305;-33.882;151.134;2023-03-23T01:57:27;4.53;;;2.63;;
16391;SDS011;8305;-33.882;151.134;2023-03-23T01:59:59;5.47;;;3.05;;
16391;SDS011;8305;-33.882;151.134;2023-03-23T02:02:43;7.15;;;3.33;;
16391;SDS011;8305;-33.882;151.134;2023-03-23T02:05:19;6.60;;;3.88;;
16391;SDS011;8305;-33.882;151.134;2023-03-23T02:07:55;6.47;;;3.10;;
16391;SDS011;8305;-33.882;151.134;2023-03-23T02:10:29;6.32;;;3.10;;
16391;SDS011;8305;-33.882;151.134;2023-03-23T02:13:02;4.60;;;2.88;;
16391;SDS011;8305;-33.882;151.134;2023-03-23T02:15:37;8.23;;;3.47;;
16391;SDS011;8305;-33.882;151.134;2023-03-23T02:18:21;4.95;;;3.47;;
16391;SDS011;8305;-33.882;151.134;2023-03-23T02:21:07;10.68;;;3.83;;
16391;SDS011;8305;-33.882;151.134;2023-03-23T02:23:53;4.90;;;3.28;;
16391;SDS011;8305;-33.882;151.134;2023-03-23T02:26:44;6.00;;;3.42;;
16391;SDS011;8305;-33.882;151.134;2023-03-23T02:32:22;9.82;;;4.10;;
16391;SDS011;8305;-33.882;151.134;2023-03-23T02:35:10;12.57;;;4.55;;
16391;SDS011;8305;-33.882;151.134;2023-03-23T02:37:46;7.40;;;4.40;;
16391;SDS011;8305;-33.882;151.134;2023-03-23T02:40:22;6.93;;;4.00;;
16391;SDS011;8305;-33.882;151.134;2023-03-23T02:42:57;6.95;;;3.90;;
16391;SDS011;8305;-33.882;151.134;2023-03-23T02:45:30;9.07;;;4.35;;
16391;SDS011;8305;-33.882;151.134;2023-03-23T02:48:05;10.30;;;4.07;;
16391;SDS011;8305;-33.882;151.134;2023-03-23T02:50:40;10.20;;;4.50;;
16391;SDS011;8305;-33.882;151.134;2023-03-23T02:53:13;11.77;;;4.45;;
16391;SDS011;8305;-33.882;151.134;2023-03-23T02:55:48;8.00;;;4.05;;
16391;SDS011;8305;-33.882;151.134;2023-03-23T02:58:21;5.68;;;3.63;;
16391;SDS011;8305;-33.882;151.134;2023-03-23T03:00:53;6.30;;;3.72;;
16391;SDS011;8305;-33.882;151.134;2023-03-23T03:03:26;6.72;;;3.63;;
16391;SDS011;8305;-33.882;151.134;2023-03-23T03:06:02;6.90;;;3.67;;
16391;SDS011;8305;-33.882;151.134;2023-03-23T03:08:44;8.20;;;3.60;;
16391;SDS011;8305;-33.882;151.134;2023-03-23T03:11:19;7.30;;;4.00;;
16391;SDS011;8305;-33.882;151.134;2023-03-23T03:13:53;9.10;;;3.88;;
16391;SDS011;8305;-33.882;151.134;2023-03-23T03:16:30;7.07;;;3.83;;
16391;SDS011;8305;-33.882;151.134;2023-03-23T03:19:05;8.02;;;3.83;;
16391;SDS011;8305;-33.882;151.134;2023-03-23T03:21:42;8.25;;;4.18;;
16391;SDS011;8305;-33.882;151.134;2023-03-23T03:24:16;7.15;;;3.78;;
16391;SDS011;8305;-33.882;151.134;2023-03-23T03:26:50;5.03;;;3.00;;
16391;SDS011;8305;-33.882;151.134;2023-03-23T03:29:25;3.83;;;2.30;;
16391;SDS011;8305;-33.882;151.134;2023-03-23T03:31:58;4.22;;;2.47;;
16391;SDS011;8305;-33.882;151.134;2023-03-23T03:34:31;4.93;;;2.20;;
16391;SDS011;8305;-33.882;151.134;2023-03-23T03:37:05;3.63;;;2.50;;
16391;SDS011;8305;-33.882;151.134;2023-03-23T03:39:37;4.18;;;2.80;;
16391;SDS011;8305;-33.882;151.134;2023-03-23T03:42:09;4.43;;;2.50;;
16391;SDS011;8305;-33.882;151.134;2023-03-23T03:44:40;4.03;;;2.40;;
16391;SDS011;8305;-33.882;151.134;2023-03-23T03:47:11;4.20;;;2.47;;
16391;SDS011;8305;-33.882;151.134;2023-03-23T03:49:42;5.90;;;2.67;;
16391;SDS011;8305;-33.882;151.134;2023-03-23T03:52:15;3.97;;;2.30;;
16391;SDS011;8305;-33.882;151.134;2023-03-23T03:54:46;4.78;;;3.05;;
16391;SDS011;8305;-33.882;151.134;2023-03-23T03:57:17;8.43;;;3.42;;
16391;SDS011;8305;-33.882;151.134;2023-03-23T03:59:48;7.93;;;3.55;;
16391;SDS011;8305;-33.882;151.134;2023-03-23T04:02:19;8.85;;;3.63;;
16391;SDS011;8305;-33.882;151.134;2023-03-23T04:04:50;7.93;;;3.58;;
16391;SDS011;8305;-33.882;151.134;2023-03-23T04:07:24;11.18;;;4.20;;
16391;SDS011;8305;-33.882;151.134;2023-03-23T04:09:55;10.05;;;4.10;;
16391;SDS011;8305;-33.882;151.134;2023-03-23T04:12:26;6.80;;;3.72;;
16391;SDS011;8305;-33.882;151.134;2023-03-23T04:14:57;13.05;;;3.72;;
16391;SDS011;8305;-33.882;151.134;2023-03-23T04:17:28;9.65;;;3.70;;
16391;SDS011;8305;-33.882;151.134;2023-03-23T04:20:00;8.05;;;3.47;;
16391;SDS011;8305;-33.882;151.134;2023-03-23T04:22:41;8.93;;;3.65;;
16391;SDS011;8305;-33.882;151.134;2023-03-23T04:25:15;10.63;;;3.60;;
16391;SDS011;8305;-33.882;151.134;2023-03-23T04:27:48;11.95;;;3.70;;
16391;SDS011;8305;-33.882;151.134;2023-03-23T04:30:20;11.45;;;4.13;;
16391;SDS011;8305;-33.882;151.134;2023-03-23T04:32:53;9.77;;;4.03;;
16391;SDS011;8305;-33.882;151.134;2023-03-23T04:35:26;6.05;;;3.38;;
16391;SDS011;8305;-33.882;151.134;2023-03-23T04:38:00;9.57;;;3.60;;
16391;SDS011;8305;-33.882;151.134;2023-03-23T04:40:31;10.45;;;3.50;;
16391;SDS011;8305;-33.882;151.134;2023-03-23T04:43:04;5.72;;;2.80;;
16391;SDS011;8305;-33.882;151.134;2023-03-23T04:45:35;7.68;;;3.20;;
16391;SDS011;8305;-33.882;151.134;2023-03-23T04:48:07;9.43;;;3.47;;
16391;SDS011;8305;-33.882;151.134;2023-03-23T04:50:38;7.63;;;3.15;;
16391;SDS011;8305;-33.882;151.134;2023-03-23T04:53:11;5.50;;;3.10;;
16391;SDS011;8305;-33.882;151.134;2023-03-23T04:55:44;8.15;;;3.00;;
16391;SDS011;8305;-33.882;151.134;2023-03-23T04:58:16;6.53;;;3.08;;
16391;SDS011;8305;-33.882;151.134;2023-03-23T05:00:47;6.40;;;2.90;;
16391;SDS011;8305;-33.882;151.134;2023-03-23T05:03:19;7.70;;;2.83;;
16391;SDS011;8305;-33.882;151.134;2023-03-23T05:05:51;5.70;;;2.50;;
16391;SDS011;8305;-33.882;151.134;2023-03-23T05:08:24;5.97;;;2.75;;
16391;SDS011;8305;-33.882;151.134;2023-03-23T05:10:56;8.25;;;3.05;;
16391;SDS011;8305;-33.882;151.134;2023-03-23T05:13:28;4.28;;;2.60;;
16391;SDS011;8305;-33.882;151.134;2023-03-23T05:16:02;7.00;;;3.22;;
16391;SDS011;8305;-33.882;151.134;2023-03-23T05:18:33;7.40;;;3.30;;
16391;SDS011;8305;-33.882;151.134;2023-03-23T05:21:06;5.68;;;2.65;;
16391;SDS011;8305;-33.882;151.134;2023-03-23T05:23:41;5.43;;;2.35;;
16391;SDS011;8305;-33.882;151.134;2023-03-23T05:26:13;7.15;;;2.72;;
16391;SDS011;8305;-33.882;151.134;2023-03-23T05:28:44;7.20;;;2.90;;
16391;SDS011;8305;-33.882;151.134;2023-03-23T05:31:18;4.18;;;2.40;;
16391;SDS011;8305;-33.882;151.134;2023-03-23T05:33:50;6.80;;;2.95;;
16391;SDS011;8305;-33.882;151.134;2023-03-23T05:36:21;6.55;;;2.70;;
16391;SDS011;8305;-33.882;151.134;2023-03-23T05:38:54;4.00;;;2.58;;
16391;SDS011;8305;-33.882;151.134;2023-03-23T05:41:26;4.38;;;2.20;;
16391;SDS011;8305;-33.882;151.134;2023-03-23T05:43:57;2.28;;;1.00;;
16391;SDS011;8305;-33.882;151.134;2023-03-23T05:46:28;1.50;;;0.60;;
16391;SDS011;8305;-33.882;151.134;2023-03-23T05:49:00;1.35;;;0.90;;
16391;SDS011;8305;-33.882;151.134;2023-03-23T05:51:31;1.55;;;0.70;;
16391;SDS011;8305;-33.882;151.134;2023-03-23T05:54:05;1.42;;;0.70;;
16391;SDS011;8305;-33.882;151.134;2023-03-23T05:56:36;1.55;;;0.90;;
16391;SDS011;8305;-33.882;151.134;2023-03-23T05:59:07;0.90;;;0.70;;
16391;SDS011;8305;-33.882;151.134;2023-03-23T06:01:39;1.42;;;0.90;;
16391;SDS011;8305;-33.882;151.134;2023-03-23T06:04:10;0.75;;;0.65;;
16391;SDS011;8305;-33.882;151.134;2023-03-23T06:06:42;3.58;;;1.05;;
16391;SDS011;8305;-33.882;151.134;2023-03-23T06:09:15;2.05;;;0.85;;
16391;SDS011;8305;-33.882;151.134;2023-03-23T06:11:46;1.45;;;0.80;;
16391;SDS011;8305;-33.882;151.134;2023-03-23T06:14:17;1.38;;;1.00;;
16391;SDS011;8305;-33.882;151.134;2023-03-23T06:16:48;2.53;;;0.90;;
16391;SDS011;8305;-33.882;151.134;2023-03-23T06:19:19;3.28;;;1.00;;
16391;SDS011;8305;-33.882;151.134;2023-03-23T06:21:53;2.88;;;1.02;;
16391;SDS011;8305;-33.882;151.134;2023-03-23T06:24:27;2.25;;;1.00;;
16391;SDS011;8305;-33.882;151.134;2023-03-23T06:26:58;1.20;;;1.08;;
16391;SDS011;8305;-33.882;151.134;2023-03-23T06:29:29;1.52;;;1.20;;
16391;SDS011;8305;-33.882;151.134;2023-03-23T06:32:01;3.67;;;1.30;;
16391;SDS011;8305;-33.882;151.134;2023-03-23T06:34:33;3.30;;;1.40;;
16391;SDS011;8305;-33.882;151.134;2023-03-23T06:37:04;3.58;;;1.40;;
16391;SDS011;8305;-33.882;151.134;2023-03-23T06:39:37;3.40;;;1.65;;
16391;SDS011;8305;-33.882;151.134;2023-03-23T06:42:09;4.45;;;1.77;;
16391;SDS011;8305;-33.882;151.134;2023-03-23T06:44:40;2.90;;;1.60;;
16391;SDS011;8305;-33.882;151.134;2023-03-23T06:47:11;4.38;;;1.60;;
16391;SDS011;8305;-33.882;151.134;2023-03-23T06:49:42;3.65;;;1.40;;
16391;SDS011;8305;-33.882;151.134;2023-03-23T06:52:13;2.58;;;1.52;;
16391;SDS011;8305;-33.882;151.134;2023-03-23T06:54:46;4.18;;;1.58;;
16391;SDS011;8305;-33.882;151.134;2023-03-23T06:57:18;3.22;;;1.27;;
16391;SDS011;8305;-33.882;151.134;2023-03-23T06:59:49;4.22;;;1.42;;
16391;SDS011;8305;-33.882;151.134;2023-03-23T07:02:20;4.60;;;1.40;;
16391;SDS011;8305;-33.882;151.134;2023-03-23T07:04:52;2.83;;;1.30;;
16391;SDS011;8305;-33.882;151.134;2023-03-23T07:07:23;3.63;;;1.52;;
16391;SDS011;8305;-33.882;151.134;2023-03-23T07:09:56;6.13;;;1.90;;
16391;SDS011;8305;-33.882;151.134;2023-03-23T07:12:27;3.92;;;2.05;;
16391;SDS011;8305;-33.882;151.134;2023-03-23T07:14:59;5.60;;;1.75;;
16391;SDS011;8305;-33.882;151.134;2023-03-23T07:17:30;6.47;;;1.90;;
16391;SDS011;8305;-33.882;151.134;2023-03-23T07:20:02;3.10;;;1.63;;
16391;SDS011;8305;-33.882;151.134;2023-03-23T07:22:34;3.58;;;1.40;;
16391;SDS011;8305;-33.882;151.134;2023-03-23T07:25:07;5.50;;;1.60;;
16391;SDS011;8305;-33.882;151.134;2023-03-23T07:27:38;4.18;;;1.60;;
16391;SDS011;8305;-33.882;151.134;2023-03-23T07:30:10;3.47;;;1.55;;
16391;SDS011;8305;-33.882;151.134;2023-03-23T07:32:41;3.00;;;1.42;;
16391;SDS011;8305;-33.882;151.134;2023-03-23T07:35:12;4.82;;;1.42;;
16391;SDS011;8305;-33.882;151.134;2023-03-23T07:37:44;5.53;;;1.80;;
16391;SDS011;8305;-33.882;151.134;2023-03-23T07:40:18;4.38;;;1.50;;
16391;SDS011;8305;-33.882;151.134;2023-03-23T07:42:51;2.58;;;1.50;;
16391;SDS011;8305;-33.882;151.134;2023-03-23T07:45:23;3.28;;;1.63;;
16391;SDS011;8305;-33.882;151.134;2023-03-23T07:47:55;3.00;;;1.55;;
16391;SDS011;8305;-33.882;151.134;2023-03-23T07:50:26;4.32;;;1.55;;
16391;SDS011;8305;-33.882;151.134;2023-03-23T07:52:59;3.35;;;1.50;;
16391;SDS011;8305;-33.882;151.134;2023-03-23T07:55:32;5.13;;;1.70;;
16391;SDS011;8305;-33.882;151.134;2023-03-23T07:58:03;3.42;;;1.23;;
16391;SDS011;8305;-33.882;151.134;2023-03-23T08:00:34;2.97;;;1.30;;
16391;SDS011;8305;-33.882;151.134;2023-03-23T08:03:06;3.55;;;1.52;;
16391;SDS011;8305;-33.882;151.134;2023-03-23T08:05:37;3.10;;;1.23;;
16391;SDS011;8305;-33.882;151.134;2023-03-23T08:08:09;2.42;;;1.40;;
16391;SDS011;8305;-33.882;151.134;2023-03-23T08:10:42;1.75;;;1.27;;
16391;SDS011;8305;-33.882;151.134;2023-03-23T08:13:13;3.85;;;1.33;;
16391;SDS011;8305;-33.882;151.134;2023-03-23T08:15:45;2.90;;;1.30;;
16391;SDS011;8305;-33.882;151.134;2023-03-23T08:18:16;2.00;;;1.23;;
16391;SDS011;8305;-33.882;151.134;2023-03-23T08:20:48;2.58;;;1.33;;
16391;SDS011;8305;-33.882;151.134;2023-03-23T08:23:19;2.20;;;1.40;;
16391;SDS011;8305;-33.882;151.134;2023-03-23T08:25:52;1.70;;;1.23;;
16391;SDS011;8305;-33.882;151.134;2023-03-23T08:28:23;2.08;;;1.40;;
16391;SDS011;8305;-33.882;151.134;2023-03-23T08:30:55;2.30;;;1.60;;
16391;SDS011;8305;-33.882;151.134;2023-03-23T08:33:26;1.52;;;1.30;;
16391;SDS011;8305;-33.882;151.134;2023-03-23T08:35:58;4.18;;;1.60;;
16391;SDS011;8305;-33.882;151.134;2023-03-23T08:38:29;2.53;;;1.35;;
16391;SDS011;8305;-33.882;151.134;2023-03-23T08:41:03;2.65;;;1.55;;
16391;SDS011;8305;-33.882;151.134;2023-03-23T08:43:35;2.53;;;1.30;;
16391;SDS011;8305;-33.882;151.134;2023-03-23T08:46:10;3.20;;;1.55;;
16391;SDS011;8305;-33.882;151.134;2023-03-23T08:48:41;2.78;;;1.33;;
16391;SDS011;8305;-33.882;151.134;2023-03-23T08:51:12;2.97;;;1.80;;
16391;SDS011;8305;-33.882;151.134;2023-03-23T08:53:43;3.55;;;1.77;;
16391;SDS011;8305;-33.882;151.134;2023-03-23T08:56:16;2.03;;;1.50;;
16391;SDS011;8305;-33.882;151.134;2023-03-23T08:58:48;2.33;;;1.50;;
16391;SDS011;8305;-33.882;151.134;2023-03-23T09:01:19;2.88;;;1.60;;
16391;SDS011;8305;-33.882;151.134;2023-03-23T09:03:51;3.45;;;1.60;;
16391;SDS011;8305;-33.882;151.134;2023-03-23T09:06:22;4.57;;;1.70;;
16391;SDS011;8305;-33.882;151.134;2023-03-23T09:08:53;3.42;;;1.50;;
16391;SDS011;8305;-33.882;151.134;2023-03-23T09:11:27;2.15;;;1.38;;
16391;SDS011;8305;-33.882;151.134;2023-03-23T09:13:58;3.05;;;1.40;;
16391;SDS011;8305;-33.882;151.134;2023-03-23T09:16:29;3.50;;;1.40;;
16391;SDS011;8305;-33.882;151.134;2023-03-23T09:19:01;1.58;;;1.30;;
16391;SDS011;8305;-33.882;151.134;2023-03-23T09:21:32;2.70;;;1.30;;
16391;SDS011;8305;-33.882;151.134;2023-03-23T09:24:03;2.35;;;1.55;;
16391;SDS011;8305;-33.882;151.134;2023-03-23T09:26:37;3.88;;;1.65;;
16391;SDS011;8305;-33.882;151.134;2023-03-23T09:29:08;2.10;;;1.50;;
16391;SDS011;8305;-33.882;151.134;2023-03-23T09:31:39;2.00;;;1.45;;
16391;SDS011;8305;-33.882;151.134;2023-03-23T09:34:12;2.63;;;1.30;;
16391;SDS011;8305;-33.882;151.134;2023-03-23T09:36:44;1.65;;;1.17;;
16391;SDS011;8305;-33.882;151.134;2023-03-23T09:39:15;2.28;;;1.40;;
16391;SDS011;8305;-33.882;151.134;2023-03-23T09:41:57;4.53;;;1.42;;
16391;SDS011;8305;-33.882;151.134;2023-03-23T09:44:39;2.33;;;1.40;;
16391;SDS011;8305;-33.882;151.134;2023-03-23T09:47:20;2.95;;;1.35;;
16391;SDS011;8305;-33.882;151.134;2023-03-23T09:50:00;2.67;;;1.45;;
16391;SDS011;8305;-33.882;151.134;2023-03-23T09:52:37;1.08;;;0.98;;
16391;SDS011;8305;-33.882;151.134;2023-03-23T09:55:16;1.38;;;1.00;;
16391;SDS011;8305;-33.882;151.134;2023-03-23T09:57:52;2.42;;;1.27;;
16391;SDS011;8305;-33.882;151.134;2023-03-23T10:00:30;3.30;;;1.30;;
16391;SDS011;8305;-33.882;151.134;2023-03-23T10:03:05;2.65;;;1.20;;
16391;SDS011;8305;-33.882;151.134;2023-03-23T10:05:45;2.03;;;1.30;;
16391;SDS011;8305;-33.882;151.134;2023-03-23T10:08:18;1.85;;;1.20;;
16391;SDS011;8305;-33.882;151.134;2023-03-23T10:10:53;4.03;;;1.30;;
16391;SDS011;8305;-33.882;151.134;2023-03-23T10:13:40;2.83;;;1.15;;
16391;SDS011;8305;-33.882;151.134;2023-03-23T10:16:19;1.48;;;1.20;;
16391;SDS011;8305;-33.882;151.134;2023-03-23T10:18:55;1.48;;;1.15;;
16391;SDS011;8305;-33.882;151.134;2023-03-23T10:21:40;1.75;;;1.10;;
16391;SDS011;8305;-33.882;151.134;2023-03-23T10:24:15;1.33;;;1.20;;
16391;SDS011;8305;-33.882;151.134;2023-03-23T10:26:53;1.23;;;1.10;;
16391;SDS011;8305;-33.882;151.134;2023-03-23T10:29:33;3.20;;;1.30;;
16391;SDS011;8305;-33.882;151.134;2023-03-23T10:32:10;1.95;;;1.25;;
16391;SDS011;8305;-33.882;151.134;2023-03-23T10:34:44;2.47;;;1.35;;
16391;SDS011;8305;-33.882;151.134;2023-03-23T10:37:19;2.25;;;1.40;;
16391;SDS011;8305;-33.882;151.134;2023-03-23T10:39:52;2.22;;;1.50;;
16391;SDS011;8305;-33.882;151.134;2023-03-23T10:42:25;1.42;;;1.17;;
16391;SDS011;8305;-33.882;151.134;2023-03-23T10:44:59;1.40;;;1.30;;
16391;SDS011;8305;-33.882;151.134;2023-03-23T10:47:43;2.25;;;1.13;;
16391;SDS011;8305;-33.882;151.134;2023-03-23T10:50:22;3.67;;;1.40;;
16391;SDS011;8305;-33.882;151.134;2023-03-23T10:52:58;2.08;;;1.30;;
16391;SDS011;8305;-33.882;151.134;2023-03-23T10:55:36;1.40;;;1.23;;
16391;SDS011;8305;-33.882;151.134;2023-03-23T10:58:10;1.23;;;1.13;;
16391;SDS011;8305;-33.882;151.134;2023-03-23T11:00:53;2.08;;;1.35;;
16391;SDS011;8305;-33.882;151.134;2023-03-23T11:03:37;2.92;;;1.40;;
16391;SDS011;8305;-33.882;151.134;2023-03-23T11:06:11;2.28;;;1.40;;
16391;SDS011;8305;-33.882;151.134;2023-03-23T11:08:48;2.38;;;1.40;;
16391;SDS011;8305;-33.882;151.134;2023-03-23T11:11:25;2.00;;;1.40;;
16391;SDS011;8305;-33.882;151.134;2023-03-23T11:13:57;1.63;;;1.30;;
16391;SDS011;8305;-33.882;151.134;2023-03-23T11:16:32;1.90;;;1.30;;
16391;SDS011;8305;-33.882;151.134;2023-03-23T11:19:11;2.15;;;1.38;;
16391;SDS011;8305;-33.882;151.134;2023-03-23T11:21:46;1.92;;;1.20;;
16391;SDS011;8305;-33.882;151.134;2023-03-23T11:24:21;1.98;;;1.60;;
16391;SDS011;8305;-33.882;151.134;2023-03-23T11:26:55;3.65;;;1.80;;
16391;SDS011;8305;-33.882;151.134;2023-03-23T11:29:29;2.95;;;1.52;;
16391;SDS011;8305;-33.882;151.134;2023-03-23T11:32:06;2.55;;;1.60;;
16391;SDS011;8305;-33.882;151.134;2023-03-23T11:34:41;2.28;;;1.60;;
16391;SDS011;8305;-33.882;151.134;2023-03-23T11:37:14;2.05;;;1.48;;
16391;SDS011;8305;-33.882;151.134;2023-03-23T11:39:53;2.90;;;1.50;;
16391;SDS011;8305;-33.882;151.134;2023-03-23T11:42:25;3.97;;;2.10;;
16391;SDS011;8305;-33.882;151.134;2023-03-23T11:45:13;2.60;;;2.00;;
16391;SDS011;8305;-33.882;151.134;2023-03-23T11:47:53;3.45;;;1.80;;
16391;SDS011;8305;-33.882;151.134;2023-03-23T11:50:31;3.70;;;2.53;;
16391;SDS011;8305;-33.882;151.134;2023-03-23T11:53:07;3.88;;;2.63;;
16391;SDS011;8305;-33.882;151.134;2023-03-23T11:55:51;5.18;;;3.40;;
16391;SDS011;8305;-33.882;151.134;2023-03-23T11:58:29;6.13;;;4.03;;
16391;SDS011;8305;-33.882;151.134;2023-03-23T12:01:03;5.45;;;3.30;;
16391;SDS011;8305;-33.882;151.134;2023-03-23T12:03:50;5.03;;;3.72;;
16391;SDS011;8305;-33.882;151.134;2023-03-23T12:06:32;5.05;;;3.40;;
16391;SDS011;8305;-33.882;151.134;2023-03-23T12:09:14;5.53;;;3.47;;
16391;SDS011;8305;-33.882;151.134;2023-03-23T12:11:57;5.97;;;3.53;;
16391;SDS011;8305;-33.882;151.134;2023-03-23T12:14:40;6.32;;;3.75;;
16391;SDS011;8305;-33.882;151.134;2023-03-23T12:17:19;5.68;;;3.45;;
16391;SDS011;8305;-33.882;151.134;2023-03-23T12:20:04;4.78;;;3.30;;
16391;SDS011;8305;-33.882;151.134;2023-03-23T12:22:53;4.05;;;3.03;;
16391;SDS011;8305;-33.882;151.134;2023-03-23T12:25:47;4.00;;;2.88;;
16391;SDS011;8305;-33.882;151.134;2023-03-23T12:28:32;4.15;;;3.03;;
16391;SDS011;8305;-33.882;151.134;2023-03-23T12:31:12;5.00;;;3.13;;
16391;SDS011;8305;-33.882;151.134;2023-03-23T12:33:51;5.93;;;3.42;;
16391;SDS011;8305;-33.882;151.134;2023-03-23T12:36:32;5.00;;;3.00;;
16391;SDS011;8305;-33.882;151.134;2023-03-23T12:42:21;5.38;;;3.20;;
16391;SDS011;8305;-33.882;151.134;2023-03-23T12:45:00;5.32;;;3.20;;
16391;SDS011;8305;-33.882;151.134;2023-03-23T12:47:45;5.80;;;3.22;;
16391;SDS011;8305;-33.882;151.134;2023-03-23T12:50:20;4.90;;;3.20;;
16391;SDS011;8305;-33.882;151.134;2023-03-23T12:52:59;4.72;;;2.90;;
16391;SDS011;8305;-33.882;151.134;2023-03-23T12:55:36;4.97;;;3.22;;
16391;SDS011;8305;-33.882;151.134;2023-03-23T12:58:12;4.38;;;3.00;;
16391;SDS011;8305;-33.882;151.134;2023-03-23T13:00:52;5.43;;;3.22;;
16391;SDS011;8305;-33.882;151.134;2023-03-23T13:03:32;5.32;;;3.42;;
16391;SDS011;8305;-33.882;151.134;2023-03-23T13:06:11;8.93;;;3.33;;
16391;SDS011;8305;-33.882;151.134;2023-03-23T13:08:49;5.43;;;3.60;;
16391;SDS011;8305;-33.882;151.134;2023-03-23T13:11:24;7.43;;;3.47;;
16391;SDS011;8305;-33.882;151.134;2023-03-23T13:14:03;7.07;;;3.67;;
16391;SDS011;8305;-33.882;151.134;2023-03-23T13:16:49;6.47;;;3.30;;
16391;SDS011;8305;-33.882;151.134;2023-03-23T13:19:31;5.75;;;3.38;;
16391;SDS011;8305;-33.882;151.134;2023-03-23T13:22:25;6.72;;;3.80;;
16391;SDS011;8305;-33.882;151.134;2023-03-23T13:25:03;6.13;;;3.38;;
16391;SDS011;8305;-33.882;151.134;2023-03-23T13:27:39;4.60;;;3.40;;
16391;SDS011;8305;-33.882;151.134;2023-03-23T13:30:18;5.40;;;3.25;;
16391;SDS011;8305;-33.882;151.134;2023-03-23T13:32:50;5.57;;;3.35;;
16391;SDS011;8305;-33.882;151.134;2023-03-23T13:35:34;6.45;;;3.63;;
16391;SDS011;8305;-33.882;151.134;2023-03-23T13:38:12;5.35;;;3.35;;
16391;SDS011;8305;-33.882;151.134;2023-03-23T13:40:49;5.30;;;3.53;;
16391;SDS011;8305;-33.882;151.134;2023-03-23T13:43:26;6.18;;;3.50;;
16391;SDS011;8305;-33.882;151.134;2023-03-23T13:46:07;4.97;;;3.30;;
16391;SDS011;8305;-33.882;151.134;2023-03-23T13:48:41;6.53;;;3.20;;
16391;SDS011;8305;-33.882;151.134;2023-03-23T13:51:31;7.68;;;3.88;;
16391;SDS011;8305;-33.882;151.134;2023-03-23T13:57:02;6.03;;;3.70;;
16391;SDS011;8305;-33.882;151.134;2023-03-23T13:59:47;5.80;;;3.33;;
16391;SDS011;8305;-33.882;151.134;2023-03-23T14:02:34;3.95;;;2.83;;
16391;SDS011;8305;-33.882;151.134;2023-03-23T14:08:01;5.43;;;2.85;;
16391;SDS011;8305;-33.882;151.134;2023-03-23T14:10:40;5.10;;;3.15;;
16391;SDS011;8305;-33.882;151.134;2023-03-23T14:13:20;5.32;;;3.50;;
16391;SDS011;8305;-33.882;151.134;2023-03-23T14:15:55;7.00;;;3.08;;
16391;SDS011;8305;-33.882;151.134;2023-03-23T14:18:32;4.60;;;3.00;;
16391;SDS011;8305;-33.882;151.134;2023-03-23T14:21:11;5.22;;;3.20;;
16391;SDS011;8305;-33.882;151.134;2023-03-23T14:23:45;7.10;;;3.38;;
16391;SDS011;8305;-33.882;151.134;2023-03-23T14:26:16;5.20;;;3.33;;
16391;SDS011;8305;-33.882;151.134;2023-03-23T14:28:52;5.20;;;3.20;;
16391;SDS011;8305;-33.882;151.134;2023-03-23T14:31:24;5.97;;;3.38;;
16391;SDS011;8305;-33.882;151.134;2023-03-23T14:33:56;6.25;;;3.58;;
16391;SDS011;8305;-33.882;151.134;2023-03-23T14:36:33;6.00;;;3.72;;
16391;SDS011;8305;-33.882;151.134;2023-03-23T14:39:06;7.13;;;4.20;;
16391;SDS011;8305;-33.882;151.134;2023-03-23T14:41:45;5.28;;;3.90;;
16391;SDS011;8305;-33.882;151.134;2023-03-23T14:44:21;5.47;;;4.00;;
16391;SDS011;8305;-33.882;151.134;2023-03-23T14:46:54;6.38;;;4.32;;
16391;SDS011;8305;-33.882;151.134;2023-03-23T14:49:28;8.02;;;4.10;;
16391;SDS011;8305;-33.882;151.134;2023-03-23T14:52:03;7.30;;;4.15;;
16391;SDS011;8305;-33.882;151.134;2023-03-23T14:54:40;6.15;;;3.95;;
16391;SDS011;8305;-33.882;151.134;2023-03-23T14:57:12;5.57;;;3.75;;
16391;SDS011;8305;-33.882;151.134;2023-03-23T14:59:47;5.82;;;3.78;;
16391;SDS011;8305;-33.882;151.134;2023-03-23T15:02:19;5.15;;;3.53;;
16391;SDS011;8305;-33.882;151.134;2023-03-23T15:04:53;5.95;;;3.80;;
16391;SDS011;8305;-33.882;151.134;2023-03-23T15:07:26;5.63;;;3.78;;
16391;SDS011;8305;-33.882;151.134;2023-03-23T15:10:05;4.60;;;3.40;;
16391;SDS011;8305;-33.882;151.134;2023-03-23T15:12:38;6.53;;;3.83;;
16391;SDS011;8305;-33.882;151.134;2023-03-23T15:15:19;5.30;;;3.65;;
16391;SDS011;8305;-33.882;151.134;2023-03-23T15:17:53;7.50;;;3.80;;
16391;SDS011;8305;-33.882;151.134;2023-03-23T15:20:27;5.40;;;3.75;;